^^
Marion, Virginia Banner
 

Adwolf, VA. Station Historical Data
[ Providing Data Since 6/07/2007 ]
Station Historical Data
 
Daily Summary for January 18, 2018 Units:  Both    English   Metric
« Previous Day
Next Day »
Daily Weekly Monthly Yearly Custom
  Current: High: Low: Average:
Temperature: 18.2 °F /  -7.7 °C 18.2 °F /  -7.7 °C 4.5 °F /  -15.3 °C 7.4 °F /  -13.7 °C
Dew Point: 9.4 °F /  -12.6 °C 9.5 °F /  -12.5 °C 1.1 °F /  -17.2 °C 3.3 °F /  -15.9 °C
Humidity: 68% 87% 67% 83%
Wind Speed: 11.5mph /  18.5km/h 15.0mph /  24.1km/h - 6.1mph /  9.8km/h
Wind Gust: 11.5mph /  18.5km/h 15.0mph /  24.1km/h - -
WindWSW - - WSW
Pressure: 30.57 in /  1035.1 hPa 30.64 in /  1037.5 hPa 30.52 in /  1033.4 hPa -
Precipitation: 0.00 in /  0 mm      
Historical Graphs
 
 
Tabular Data for January 18, 2018
Time Temperature Dew Point Pressure Wind Wind Speed Wind Gust Humidity Rainfall Rate (Hourly) solar Conditions
00:00 6.7 °F /  -14.1 °C 2.7 °F /  -16.3 °C 30.54in /  1034.1hPa SW 2.0mph /  3.2km/h 6.0mph /  9.7km/h 83% 0.00in /  0mm WeatherDisplay:10.37 W/m2 -SN
00:05 6.6 °F /  -14.1 °C 2.5 °F /  -16.4 °C 30.54in /  1034.1hPa WSW 2.3mph /  3.7km/h 2.3mph /  3.7km/h 83% 0.00in /  0mm WeatherDisplay:10.37 W/m2 -SN
00:10 8.2 °F /  -13.2 °C 3.8 °F /  -15.7 °C 30.54in /  1034.1hPa WSW 3.5mph /  5.6km/h 3.5mph /  5.6km/h 82% 0.00in /  0mm WeatherDisplay:10.37 W/m2 -SN
00:15 7.8 °F /  -13.4 °C 3.2 °F /  -16 °C 30.54in /  1034.1hPa SW 3.5mph /  5.6km/h 3.5mph /  5.6km/h 81% 0.00in /  0mm WeatherDisplay:10.37 W/m2 -SN
00:20 7.1 °F /  -13.8 °C 2.8 °F /  -16.2 °C 30.54in /  1034.1hPa WSW 5.8mph /  9.3km/h 5.8mph /  9.3km/h 82% 0.00in /  0mm WeatherDisplay:10.37 W/m2 -SN
00:25 6.7 °F /  -14.1 °C 2.4 °F /  -16.4 °C 30.54in /  1034.1hPa SW 3.5mph /  5.6km/h 3.5mph /  5.6km/h 82% 0.00in /  0mm WeatherDisplay:10.37 W/m2 -SN
00:30 6.6 °F /  -14.1 °C 2.5 °F /  -16.4 °C 30.54in /  1034.1hPa SW 4.6mph /  7.4km/h 4.6mph /  7.4km/h 83% 0.00in /  0mm WeatherDisplay:10.37 W/m2 -SN
00:35 6.7 °F /  -14.1 °C 2.6 °F /  -16.3 °C 30.53in /  1033.7hPa WSW 5.8mph /  9.3km/h 5.8mph /  9.3km/h 83% 0.00in /  0mm WeatherDisplay:10.37 W/m2 -SN
00:40 6.8 °F /  -14 °C 2.7 °F /  -16.3 °C 30.53in /  1033.7hPa West 3.5mph /  5.6km/h 3.5mph /  5.6km/h 83% 0.00in /  0mm WeatherDisplay:10.37 W/m2 -SN
00:45 6.8 °F /  -14 °C 2.7 °F /  -16.3 °C 30.53in /  1033.7hPa WSW 3.5mph /  5.6km/h 3.5mph /  5.6km/h 83% 0.00in /  0mm WeatherDisplay:10.37 W/m2 OVC
00:50 6.8 °F /  -14 °C 2.7 °F /  -16.3 °C 30.52in /  1033.4hPa WSW 3.5mph /  5.6km/h 3.5mph /  5.6km/h 83% 0.00in /  0mm WeatherDisplay:10.37 W/m2 OVC
00:55 6.8 °F /  -14 °C 2.7 °F /  -16.3 °C 30.52in /  1033.4hPa SW 3.5mph /  5.6km/h 3.5mph /  5.6km/h 83% 0.00in /  0mm WeatherDisplay:10.37 W/m2 OVC
01:00 6.7 °F /  -14.1 °C 2.6 °F /  -16.3 °C 30.52in /  1033.4hPa SW 2.0mph /  3.2km/h 5.0mph /  8km/h 83% 0.00in /  0mm WeatherDisplay:10.37 W/m2 OVC
01:05 6.2 °F /  -14.3 °C 2.1 °F /  -16.6 °C 30.52in /  1033.4hPa SW 3.5mph /  5.6km/h 3.5mph /  5.6km/h 83% 0.00in /  0mm WeatherDisplay:10.37 W/m2 OVC
01:10 6.0 °F /  -14.4 °C 1.9 °F /  -16.7 °C 30.52in /  1033.4hPa West 3.5mph /  5.6km/h 3.5mph /  5.6km/h 83% 0.00in /  0mm WeatherDisplay:10.37 W/m2 OVC
01:15 5.8 °F /  -14.6 °C 1.8 °F /  -16.8 °C 30.52in /  1033.4hPa WSW 3.5mph /  5.6km/h 3.5mph /  5.6km/h 83% 0.00in /  0mm WeatherDisplay:10.37 W/m2 -SN
01:20 5.9 °F /  -14.5 °C 2.1 °F /  -16.6 °C 30.52in /  1033.4hPa SW 3.5mph /  5.6km/h 3.5mph /  5.6km/h 84% 0.00in /  0mm WeatherDisplay:10.37 W/m2 -SN
01:25 5.9 °F /  -14.5 °C 2.1 °F /  -16.6 °C 30.52in /  1033.4hPa West 6.9mph /  11.1km/h 6.9mph /  11.1km/h 84% 0.00in /  0mm WeatherDisplay:10.37 W/m2 -SN
01:30 5.9 °F /  -14.5 °C 2.1 °F /  -16.6 °C 30.52in /  1033.4hPa SW 6.9mph /  11.1km/h 6.9mph /  11.1km/h 84% 0.00in /  0mm WeatherDisplay:10.37 W/m2 -SN
01:35 5.8 °F /  -14.6 °C 2.0 °F /  -16.7 °C 30.52in /  1033.4hPa SW 4.6mph /  7.4km/h 4.6mph /  7.4km/h 84% 0.00in /  0mm WeatherDisplay:10.37 W/m2 -SN
01:40 5.6 °F /  -14.7 °C 1.8 °F /  -16.8 °C 30.52in /  1033.4hPa WSW 3.5mph /  5.6km/h 3.5mph /  5.6km/h 84% 0.00in /  0mm WeatherDisplay:10.37 W/m2 -SN
01:45 5.6 °F /  -14.7 °C 1.8 °F /  -16.8 °C 30.52in /  1033.4hPa WSW 3.5mph /  5.6km/h 3.5mph /  5.6km/h 84% 0.00in /  0mm WeatherDisplay:10.37 W/m2 -SN
01:50 5.5 °F /  -14.7 °C 1.7 °F /  -16.8 °C 30.52in /  1033.4hPa SW 3.5mph /  5.6km/h 3.5mph /  5.6km/h 84% 0.00in /  0mm WeatherDisplay:10.37 W/m2 -SN
01:55 5.4 °F /  -14.8 °C 1.6 °F /  -16.9 °C 30.52in /  1033.4hPa WSW 4.0mph /  6.4km/h 4.0mph /  6.4km/h 84% 0.00in /  0mm WeatherDisplay:10.37 W/m2 -SN
02:00 5.4 °F /  -14.8 °C 1.6 °F /  -16.9 °C 30.52in /  1033.4hPa WSW 2.0mph /  3.2km/h 4.0mph /  6.4km/h 84% 0.00in /  0mm WeatherDisplay:10.37 W/m2 -SN
02:05 5.3 °F /  -14.8 °C 1.5 °F /  -16.9 °C 30.52in /  1033.4hPa SW 3.5mph /  5.6km/h 3.5mph /  5.6km/h 84% 0.00in /  0mm WeatherDisplay:10.37 W/m2 -SN
02:10 5.2 °F /  -14.9 °C 1.4 °F /  -17 °C 30.52in /  1033.4hPa SW 3.5mph /  5.6km/h 3.5mph /  5.6km/h 84% 0.00in /  0mm WeatherDisplay:10.37 W/m2 -SN
02:15 5.1 °F /  -14.9 °C 1.6 °F /  -16.9 °C 30.53in /  1033.7hPa WSW 3.5mph /  5.6km/h 3.5mph /  5.6km/h 85% 0.00in /  0mm WeatherDisplay:10.37 W/m2 -SN
02:20 5.1 °F /  -14.9 °C 1.6 °F /  -16.9 °C 30.53in /  1033.7hPa WSW 3.5mph /  5.6km/h 3.5mph /  5.6km/h 85% 0.00in /  0mm WeatherDisplay:10.37 W/m2 -SN
02:25 5.2 °F /  -14.9 °C 1.7 °F /  -16.8 °C 30.52in /  1033.4hPa WSW 3.5mph /  5.6km/h 3.5mph /  5.6km/h 85% 0.00in /  0mm WeatherDisplay:10.37 W/m2 -SN
02:30 5.2 °F /  -14.9 °C 1.7 °F /  -16.8 °C 30.52in /  1033.4hPa SW 3.5mph /  5.6km/h 3.5mph /  5.6km/h 85% 0.00in /  0mm WeatherDisplay:10.37 W/m2 -SN
02:35 5.1 °F /  -14.9 °C 1.3 °F /  -17.1 °C 30.52in /  1033.4hPa WSW 3.5mph /  5.6km/h 3.5mph /  5.6km/h 84% 0.00in /  0mm WeatherDisplay:10.37 W/m2 -SN
02:40 5.0 °F /  -15 °C 1.5 °F /  -16.9 °C 30.52in /  1033.4hPa SW 2.3mph /  3.7km/h 2.3mph /  3.7km/h 85% 0.00in /  0mm WeatherDisplay:10.37 W/m2 -SN
02:45 4.9 °F /  -15.1 °C 1.4 °F /  -17 °C 30.52in /  1033.4hPa SW 2.3mph /  3.7km/h 2.3mph /  3.7km/h 85% 0.00in /  0mm WeatherDisplay:10.37 W/m2 -SN
02:50 4.9 °F /  -15.1 °C 1.4 °F /  -17 °C 30.52in /  1033.4hPa SW 2.3mph /  3.7km/h 2.3mph /  3.7km/h 85% 0.00in /  0mm WeatherDisplay:10.37 W/m2 -SN
02:55 4.8 °F /  -15.1 °C 1.3 °F /  -17.1 °C 30.52in /  1033.4hPa SW 2.3mph /  3.7km/h 2.3mph /  3.7km/h 85% 0.00in /  0mm WeatherDisplay:10.37 W/m2 -SN
03:00 4.7 °F /  -15.2 °C 1.2 °F /  -17.1 °C 30.52in /  1033.4hPa SW 1.0mph /  1.6km/h 2.0mph /  3.2km/h 85% 0.00in /  0mm WeatherDisplay:10.37 W/m2 -SN
03:05 4.7 °F /  -15.2 °C 1.2 °F /  -17.1 °C 30.52in /  1033.4hPa WSW 3.5mph /  5.6km/h 3.5mph /  5.6km/h 85% 0.00in /  0mm WeatherDisplay:10.37 W/m2 -SN
03:10 4.7 °F /  -15.2 °C 1.2 °F /  -17.1 °C 30.52in /  1033.4hPa SW 3.5mph /  5.6km/h 3.5mph /  5.6km/h 85% 0.00in /  0mm WeatherDisplay:10.37 W/m2 -SN
03:15 4.8 °F /  -15.1 °C 1.3 °F /  -17.1 °C 30.52in /  1033.4hPa SW 3.5mph /  5.6km/h 3.5mph /  5.6km/h 85% 0.00in /  0mm WeatherDisplay:10.37 W/m2 -SN
03:20 4.9 °F /  -15.1 °C 1.4 °F /  -17 °C 30.52in /  1033.4hPa SW 2.3mph /  3.7km/h 2.3mph /  3.7km/h 85% 0.00in /  0mm WeatherDisplay:10.37 W/m2 -SN
03:25 4.9 °F /  -15.1 °C 1.4 °F /  -17 °C 30.52in /  1033.4hPa SW 3.5mph /  5.6km/h 3.5mph /  5.6km/h 85% 0.00in /  0mm WeatherDisplay:10.37 W/m2 -SN
03:30 4.9 °F /  -15.1 °C 1.4 °F /  -17 °C 30.52in /  1033.4hPa WSW 2.3mph /  3.7km/h 2.3mph /  3.7km/h 85% 0.00in /  0mm WeatherDisplay:10.37 W/m2 -SN
03:35 4.9 °F /  -15.1 °C 1.4 °F /  -17 °C 30.52in /  1033.4hPa WSW 2.3mph /  3.7km/h 2.3mph /  3.7km/h 85% 0.00in /  0mm WeatherDisplay:10.37 W/m2 OVC
03:40 4.9 °F /  -15.1 °C 1.4 °F /  -17 °C 30.53in /  1033.7hPa WSW 4.6mph /  7.4km/h 4.6mph /  7.4km/h 85% 0.00in /  0mm WeatherDisplay:10.37 W/m2 OVC
03:45 4.9 °F /  -15.1 °C 1.4 °F /  -17 °C 30.53in /  1033.7hPa WSW 3.5mph /  5.6km/h 3.5mph /  5.6km/h 85% 0.00in /  0mm WeatherDisplay:10.37 W/m2 OVC
03:50 5.0 °F /  -15 °C 1.5 °F /  -16.9 °C 30.53in /  1033.7hPa WSW 3.5mph /  5.6km/h 3.5mph /  5.6km/h 85% 0.00in /  0mm WeatherDisplay:10.37 W/m2 OVC
03:55 4.9 °F /  -15.1 °C 1.4 °F /  -17 °C 30.53in /  1033.7hPa SW 3.5mph /  5.6km/h 3.5mph /  5.6km/h 85% 0.00in /  0mm WeatherDisplay:10.37 W/m2 OVC
04:00 4.9 °F /  -15.1 °C 1.4 °F /  -17 °C 30.53in /  1033.7hPa SW 2.0mph /  3.2km/h 4.0mph /  6.4km/h 85% 0.00in /  0mm WeatherDisplay:10.37 W/m2 OVC
04:05 4.8 °F /  -15.1 °C 1.3 °F /  -17.1 °C 30.53in /  1033.7hPa SSW 3.5mph /  5.6km/h 3.5mph /  5.6km/h 85% 0.00in /  0mm WeatherDisplay:10.37 W/m2 OVC
04:10 4.7 °F /  -15.2 °C 1.2 °F /  -17.1 °C 30.53in /  1033.7hPa WSW 3.5mph /  5.6km/h 3.5mph /  5.6km/h 85% 0.00in /  0mm WeatherDisplay:10.37 W/m2 OVC
04:15 4.6 °F /  -15.2 °C 1.3 °F /  -17.1 °C 30.53in /  1033.7hPa WSW 3.5mph /  5.6km/h 3.5mph /  5.6km/h 86% 0.00in /  0mm WeatherDisplay:10.37 W/m2 OVC
04:20 4.6 °F /  -15.2 °C 1.1 °F /  -17.2 °C 30.53in /  1033.7hPa WSW 2.3mph /  3.7km/h 2.3mph /  3.7km/h 85% 0.00in /  0mm WeatherDisplay:10.37 W/m2 OVC
04:25 4.5 °F /  -15.3 °C 1.2 °F /  -17.1 °C 30.53in /  1033.7hPa SW 3.5mph /  5.6km/h 3.5mph /  5.6km/h 86% 0.00in /  0mm WeatherDisplay:10.37 W/m2 OVC
04:30 4.5 °F /  -15.3 °C 1.2 °F /  -17.1 °C 30.53in /  1033.7hPa SW 3.5mph /  5.6km/h 3.5mph /  5.6km/h 86% 0.00in /  0mm WeatherDisplay:10.37 W/m2 OVC
04:35 4.6 °F /  -15.2 °C 1.3 °F /  -17.1 °C 30.53in /  1033.7hPa SW 3.5mph /  5.6km/h 3.5mph /  5.6km/h 86% 0.00in /  0mm WeatherDisplay:10.37 W/m2 OVC
04:40 4.6 °F /  -15.2 °C 1.3 °F /  -17.1 °C 30.52in /  1033.4hPa WSW 3.0mph /  4.8km/h 3.0mph /  4.8km/h 86% 0.00in /  0mm WeatherDisplay:10.37 W/m2 OVC
04:45 4.6 °F /  -15.2 °C 1.3 °F /  -17.1 °C 30.52in /  1033.4hPa WSW 3.5mph /  5.6km/h 3.5mph /  5.6km/h 86% 0.00in /  0mm WeatherDisplay:10.37 W/m2 -SN
04:50 4.7 °F /  -15.2 °C 1.4 °F /  -17 °C 30.52in /  1033.4hPa WSW 3.5mph /  5.6km/h 3.5mph /  5.6km/h 86% 0.00in /  0mm WeatherDisplay:10.37 W/m2 -SN
04:55 4.6 °F /  -15.2 °C 1.3 °F /  -17.1 °C 30.52in /  1033.4hPa WSW 2.3mph /  3.7km/h 2.3mph /  3.7km/h 86% 0.00in /  0mm WeatherDisplay:10.37 W/m2 -SN
05:00 4.7 °F /  -15.2 °C 1.4 °F /  -17 °C 30.52in /  1033.4hPa SW 4.0mph /  6.4km/h 4.0mph /  6.4km/h 86% 0.00in /  0mm WeatherDisplay:10.37 W/m2 -SN
05:05 4.7 °F /  -15.2 °C 1.4 °F /  -17 °C 30.53in /  1033.7hPa SW 2.3mph /  3.7km/h 2.3mph /  3.7km/h 86% 0.00in /  0mm WeatherDisplay:10.37 W/m2 -SN
05:10 4.8 °F /  -15.1 °C 1.5 °F /  -16.9 °C 30.53in /  1033.7hPa SW 2.3mph /  3.7km/h 2.3mph /  3.7km/h 86% 0.00in /  0mm WeatherDisplay:10.37 W/m2 -SN
05:15 4.9 °F /  -15.1 °C 1.6 °F /  -16.9 °C 30.53in /  1033.7hPa WSW 3.5mph /  5.6km/h 3.5mph /  5.6km/h 86% 0.00in /  0mm WeatherDisplay:10.37 W/m2 -SN
05:20 5.1 °F /  -14.9 °C 1.8 °F /  -16.8 °C 30.53in /  1033.7hPa WSW 4.0mph /  6.4km/h 4.0mph /  6.4km/h 86% 0.00in /  0mm WeatherDisplay:10.37 W/m2 -SN
05:25 5.2 °F /  -14.9 °C 1.9 °F /  -16.7 °C 30.53in /  1033.7hPa SW 4.6mph /  7.4km/h 4.6mph /  7.4km/h 86% 0.00in /  0mm WeatherDisplay:10.37 W/m2 OVC
05:30 5.3 °F /  -14.8 °C 2.0 °F /  -16.7 °C 30.54in /  1034.1hPa SW 3.5mph /  5.6km/h 3.5mph /  5.6km/h 86% 0.00in /  0mm WeatherDisplay:10.37 W/m2 OVC
05:35 5.3 °F /  -14.8 °C 2.0 °F /  -16.7 °C 30.54in /  1034.1hPa SW 4.6mph /  7.4km/h 4.6mph /  7.4km/h 86% 0.00in /  0mm WeatherDisplay:10.37 W/m2 OVC
05:40 5.4 °F /  -14.8 °C 2.1 °F /  -16.6 °C 30.54in /  1034.1hPa WSW 3.5mph /  5.6km/h 3.5mph /  5.6km/h 86% 0.00in /  0mm WeatherDisplay:10.37 W/m2 OVC
05:45 5.5 °F /  -14.7 °C 2.2 °F /  -16.6 °C 30.55in /  1034.4hPa WSW 4.6mph /  7.4km/h 4.6mph /  7.4km/h 86% 0.00in /  0mm WeatherDisplay:10.37 W/m2 OVC
05:50 5.5 °F /  -14.7 °C 2.2 °F /  -16.6 °C 30.55in /  1034.4hPa SW 8.1mph /  13km/h 8.1mph /  13km/h 86% 0.00in /  0mm WeatherDisplay:10.37 W/m2 OVC
05:55 5.6 °F /  -14.7 °C 2.3 °F /  -16.5 °C 30.55in /  1034.4hPa WSW 3.5mph /  5.6km/h 3.5mph /  5.6km/h 86% 0.00in /  0mm WeatherDisplay:10.37 W/m2 OVC
06:00 5.7 °F /  -14.6 °C 2.4 °F /  -16.4 °C 30.55in /  1034.4hPa SSW 3.5mph /  5.6km/h 3.5mph /  5.6km/h 86% 0.00in /  0mm WeatherDisplay:10.37 W/m2 OVC
06:05 5.8 °F /  -14.6 °C 2.5 °F /  -16.4 °C 30.55in /  1034.4hPa SW 3.5mph /  5.6km/h 3.5mph /  5.6km/h 86% 0.00in /  0mm WeatherDisplay:10.37 W/m2 OVC
06:10 5.8 °F /  -14.6 °C 2.5 °F /  -16.4 °C 30.56in /  1034.8hPa West 6.9mph /  11.1km/h 6.9mph /  11.1km/h 86% 0.00in /  0mm WeatherDisplay:10.37 W/m2 OVC
06:15 5.8 °F /  -14.6 °C 2.5 °F /  -16.4 °C 30.55in /  1034.4hPa SW 5.8mph /  9.3km/h 5.8mph /  9.3km/h 86% 0.00in /  0mm WeatherDisplay:10.37 W/m2 OVC
06:20 5.7 °F /  -14.6 °C 2.4 °F /  -16.4 °C 30.56in /  1034.8hPa WSW 8.1mph /  13km/h 8.1mph /  13km/h 86% 0.00in /  0mm WeatherDisplay:10.37 W/m2 OVC
06:25 5.7 °F /  -14.6 °C 2.4 °F /  -16.4 °C 30.56in /  1034.8hPa WSW 6.9mph /  11.1km/h 6.9mph /  11.1km/h 86% 0.00in /  0mm WeatherDisplay:10.37 W/m2 OVC
06:30 5.7 °F /  -14.6 °C 2.4 °F /  -16.4 °C 30.56in /  1034.8hPa SSW 4.6mph /  7.4km/h 4.6mph /  7.4km/h 86% 0.00in /  0mm WeatherDisplay:10.37 W/m2 OVC
06:35 5.7 °F /  -14.6 °C 2.4 °F /  -16.4 °C 30.57in /  1035.1hPa SW 11.0mph /  17.7km/h 11.0mph /  17.7km/h 86% 0.00in /  0mm WeatherDisplay:10.37 W/m2 OVC
06:40 5.6 °F /  -14.7 °C 2.3 °F /  -16.5 °C 30.57in /  1035.1hPa SW 8.1mph /  13km/h 8.1mph /  13km/h 86% 0.00in /  0mm WeatherDisplay:10.37 W/m2 OVC
06:45 5.6 °F /  -14.7 °C 2.3 °F /  -16.5 °C 30.57in /  1035.1hPa WSW 3.5mph /  5.6km/h 3.5mph /  5.6km/h 86% 0.00in /  0mm WeatherDisplay:10.37 W/m2 OVC
06:50 5.5 °F /  -14.7 °C 2.2 °F /  -16.6 °C 30.57in /  1035.1hPa WSW 3.5mph /  5.6km/h 3.5mph /  5.6km/h 86% 0.00in /  0mm WeatherDisplay:10.37 W/m2 OVC
06:55 5.4 °F /  -14.8 °C 2.1 °F /  -16.6 °C 30.58in /  1035.4hPa WSW 4.6mph /  7.4km/h 4.6mph /  7.4km/h 86% 0.00in /  0mm WeatherDisplay:10.37 W/m2 OVC
07:00 5.4 °F /  -14.8 °C 2.1 °F /  -16.6 °C 30.58in /  1035.4hPa SW 3.5mph /  5.6km/h 3.5mph /  5.6km/h 86% 0.00in /  0mm WeatherDisplay:10.37 W/m2 OVC
07:05 5.4 °F /  -14.8 °C 2.1 °F /  -16.6 °C 30.58in /  1035.4hPa West 3.5mph /  5.6km/h 3.5mph /  5.6km/h 86% 0.00in /  0mm WeatherDisplay:10.37 W/m2 BKN
07:10 5.4 °F /  -14.8 °C 2.1 °F /  -16.6 °C 30.58in /  1035.4hPa WSW 4.6mph /  7.4km/h 4.6mph /  7.4km/h 86% 0.00in /  0mm WeatherDisplay:10.37 W/m2 BKN
07:15 5.4 °F /  -14.8 °C 2.1 °F /  -16.6 °C 30.58in /  1035.4hPa WSW 5.8mph /  9.3km/h 5.8mph /  9.3km/h 86% 0.00in /  0mm WeatherDisplay:10.37 W/m2 BKN
07:20 5.3 °F /  -14.8 °C 2.0 °F /  -16.7 °C 30.58in /  1035.4hPa SW 5.8mph /  9.3km/h 5.8mph /  9.3km/h 86% 0.00in /  0mm WeatherDisplay:10.37 W/m2 BKN
07:25 5.4 °F /  -14.8 °C 2.1 °F /  -16.6 °C 30.59in /  1035.8hPa SW 7.0mph /  11.3km/h 7.0mph /  11.3km/h 86% 0.00in /  0mm WeatherDisplay:10.37 W/m2 BKN
07:30 5.3 °F /  -14.8 °C 2.0 °F /  -16.7 °C 30.59in /  1035.8hPa WSW 5.8mph /  9.3km/h 5.8mph /  9.3km/h 86% 0.00in /  0mm WeatherDisplay:10.37 W/m2 BKN
07:35 5.3 °F /  -14.8 °C 2.0 °F /  -16.7 °C 30.59in /  1035.8hPa WSW 5.8mph /  9.3km/h 5.8mph /  9.3km/h 86% 0.00in /  0mm WeatherDisplay:10.37 W/m2 BKN
07:40 5.3 °F /  -14.8 °C 2.0 °F /  -16.7 °C 30.59in /  1035.8hPa SW 4.6mph /  7.4km/h 4.6mph /  7.4km/h 86% 0.00in /  0mm WeatherDisplay:10.37 W/m2 BKN
07:45 5.2 °F /  -14.9 °C 1.9 °F /  -16.7 °C 30.59in /  1035.8hPa WSW 6.9mph /  11.1km/h 6.9mph /  11.1km/h 86% 0.00in /  0mm WeatherDisplay:10.37 W/m2 BKN
07:50 5.3 °F /  -14.8 °C 2.0 °F /  -16.7 °C 30.59in /  1035.8hPa WSW 5.8mph /  9.3km/h 5.8mph /  9.3km/h 86% 0.00in /  0mm WeatherDisplay:10.37 W/m2 BKN
07:55 5.3 °F /  -14.8 °C 2.0 °F /  -16.7 °C 30.59in /  1035.8hPa WSW 8.1mph /  13km/h 8.1mph /  13km/h 86% 0.00in /  0mm WeatherDisplay:10.37 W/m2 BKN
08:00 5.3 °F /  -14.8 °C 2.3 °F /  -16.5 °C 30.59in /  1035.8hPa WSW 3.5mph /  5.6km/h 3.5mph /  5.6km/h 87% 0.00in /  0mm WeatherDisplay:10.37 W/m2 BKN
08:05 5.4 °F /  -14.8 °C 2.1 °F /  -16.6 °C 30.60in /  1036.1hPa West 5.8mph /  9.3km/h 5.8mph /  9.3km/h 86% 0.00in /  0mm WeatherDisplay:10.37 W/m2 BKN
08:10 5.5 °F /  -14.7 °C 2.5 °F /  -16.4 °C 30.60in /  1036.1hPa WSW 7.0mph /  11.3km/h 7.0mph /  11.3km/h 87% 0.00in /  0mm WeatherDisplay:10.37 W/m2 BKN
08:15 5.6 °F /  -14.7 °C 2.6 °F /  -16.3 °C 30.60in /  1036.1hPa WSW 8.1mph /  13km/h 8.1mph /  13km/h 87% 0.00in /  0mm WeatherDisplay:10.37 W/m2 BKN
08:20 5.7 °F /  -14.6 °C 2.7 °F /  -16.3 °C 30.60in /  1036.1hPa WSW 3.5mph /  5.6km/h 3.5mph /  5.6km/h 87% 0.00in /  0mm WeatherDisplay:10.37 W/m2 BKN
08:25 5.6 °F /  -14.7 °C 2.6 °F /  -16.3 °C 30.61in /  1036.5hPa West 6.9mph /  11.1km/h 6.9mph /  11.1km/h 87% 0.00in /  0mm WeatherDisplay:10.37 W/m2 OVC
08:30 5.6 °F /  -14.7 °C 2.6 °F /  -16.3 °C 30.61in /  1036.5hPa West 6.9mph /  11.1km/h 6.9mph /  11.1km/h 87% 0.00in /  0mm WeatherDisplay:10.37 W/m2 OVC
08:35 5.6 °F /  -14.7 °C 2.6 °F /  -16.3 °C 30.61in /  1036.5hPa SW 6.9mph /  11.1km/h 6.9mph /  11.1km/h 87% 0.00in /  0mm WeatherDisplay:10.37 W/m2 OVC
08:40 5.7 °F /  -14.6 °C 2.7 °F /  -16.3 °C 30.61in /  1036.5hPa SW 5.8mph /  9.3km/h 5.8mph /  9.3km/h 87% 0.00in /  0mm WeatherDisplay:10.37 W/m2 OVC
08:45 5.7 °F /  -14.6 °C 2.7 °F /  -16.3 °C 30.62in /  1036.8hPa West 5.8mph /  9.3km/h 5.8mph /  9.3km/h 87% 0.00in /  0mm WeatherDisplay:10.37 W/m2 OVC
08:50 5.9 °F /  -14.5 °C 2.9 °F /  -16.2 °C 30.62in /  1036.8hPa WSW 6.9mph /  11.1km/h 6.9mph /  11.1km/h 87% 0.00in /  0mm WeatherDisplay:10.37 W/m2 OVC
08:55 6.1 °F /  -14.4 °C 3.1 °F /  -16.1 °C 30.61in /  1036.5hPa WSW 8.1mph /  13km/h 8.1mph /  13km/h 87% 0.00in /  0mm WeatherDisplay:10.37 W/m2 OVC
09:00 6.3 °F /  -14.3 °C 3.3 °F /  -15.9 °C 30.62in /  1036.8hPa WSW 8.1mph /  13km/h 8.1mph /  13km/h 87% 0.00in /  0mm WeatherDisplay:10.37 W/m2 OVC
09:05 6.5 °F /  -14.2 °C 3.2 °F /  -16 °C 30.62in /  1036.8hPa West 9.2mph /  14.8km/h 9.2mph /  14.8km/h 86% 0.00in /  0mm WeatherDisplay:10.37 W/m2 OVC
09:10 6.7 °F /  -14.1 °C 3.4 °F /  -15.9 °C 30.62in /  1036.8hPa WSW 9.2mph /  14.8km/h 9.2mph /  14.8km/h 86% 0.00in /  0mm WeatherDisplay:10.37 W/m2 OVC
09:15 6.9 °F /  -13.9 °C 3.6 °F /  -15.8 °C 30.62in /  1036.8hPa WSW 8.1mph /  13km/h 8.1mph /  13km/h 86% 0.00in /  0mm WeatherDisplay:10.37 W/m2 OVC
09:20 7.1 °F /  -13.8 °C 3.8 °F /  -15.7 °C 30.62in /  1036.8hPa West 10.4mph /  16.7km/h 10.4mph /  16.7km/h 86% 0.00in /  0mm WeatherDisplay:10.37 W/m2 OVC
09:25 7.3 °F /  -13.7 °C 3.7 °F /  -15.7 °C 30.62in /  1036.8hPa West 10.4mph /  16.7km/h 10.4mph /  16.7km/h 85% 0.00in /  0mm WeatherDisplay:10.37 W/m2 -SN
09:30 7.6 °F /  -13.6 °C 4.0 °F /  -15.6 °C 30.62in /  1036.8hPa WSW 11.5mph /  18.5km/h 11.5mph /  18.5km/h 85% 0.00in /  0mm WeatherDisplay:10.37 W/m2 -SN
09:35 7.8 °F /  -13.4 °C 4.2 °F /  -15.4 °C 30.63in /  1037.1hPa West 11.5mph /  18.5km/h 11.5mph /  18.5km/h 85% 0.00in /  0mm WeatherDisplay:10.37 W/m2 -SN
09:40 8.1 °F /  -13.3 °C 4.5 °F /  -15.3 °C 30.63in /  1037.1hPa SW 12.7mph /  20.4km/h 12.7mph /  20.4km/h 85% 0.00in /  0mm WeatherDisplay:10.37 W/m2 -SN
09:45 8.5 °F /  -13.1 °C 4.9 °F /  -15.1 °C 30.63in /  1037.1hPa West 10.4mph /  16.7km/h 10.4mph /  16.7km/h 85% 0.00in /  0mm WeatherDisplay:10.37 W/m2 OVC
09:50 9.0 °F /  -12.8 °C 5.1 °F /  -14.9 °C 30.63in /  1037.1hPa SW 5.8mph /  9.3km/h 5.8mph /  9.3km/h 84% 0.00in /  0mm WeatherDisplay:10.37 W/m2 OVC
09:55 9.3 °F /  -12.6 °C 5.4 °F /  -14.8 °C 30.63in /  1037.1hPa West 6.9mph /  11.1km/h 6.9mph /  11.1km/h 84% 0.00in /  0mm WeatherDisplay:10.37 W/m2 OVC
10:00 9.3 °F /  -12.6 °C 5.2 °F /  -14.9 °C 30.63in /  1037.1hPa SW 12.7mph /  20.4km/h 12.7mph /  20.4km/h 83% 0.00in /  0mm WeatherDisplay:10.37 W/m2 OVC
10:05 9.6 °F /  -12.4 °C 5.5 °F /  -14.7 °C 30.63in /  1037.1hPa SW 9.2mph /  14.8km/h 9.2mph /  14.8km/h 83% 0.00in /  0mm WeatherDisplay:10.37 W/m2 OVC
10:10 10.0 °F /  -12.2 °C 5.6 °F /  -14.7 °C 30.63in /  1037.1hPa SW 6.9mph /  11.1km/h 6.9mph /  11.1km/h 82% 0.00in /  0mm WeatherDisplay:10.37 W/m2 OVC
10:15 10.3 °F /  -12.1 °C 5.6 °F /  -14.7 °C 30.63in /  1037.1hPa WSW 11.0mph /  17.7km/h 11.0mph /  17.7km/h 81% 0.00in /  0mm WeatherDisplay:10.37 W/m2 OVC
10:20 10.2 °F /  -12.1 °C 5.5 °F /  -14.7 °C 30.63in /  1037.1hPa WSW 10.0mph /  16.1km/h 10.0mph /  16.1km/h 81% 0.00in /  0mm WeatherDisplay:10.37 W/m2 OVC
10:25 10.3 °F /  -12.1 °C 5.6 °F /  -14.7 °C 30.63in /  1037.1hPa WSW 10.4mph /  16.7km/h 10.4mph /  16.7km/h 81% 0.00in /  0mm WeatherDisplay:10.37 W/m2 OVC
10:30 10.8 °F /  -11.8 °C 6.1 °F /  -14.4 °C 30.64in /  1037.5hPa West 11.5mph /  18.5km/h 11.5mph /  18.5km/h 81% 0.00in /  0mm WeatherDisplay:10.37 W/m2 OVC
10:35 11.0 °F /  -11.7 °C 6.0 °F /  -14.4 °C 30.63in /  1037.1hPa SSW 15.0mph /  24.1km/h 15.0mph /  24.1km/h 80% 0.00in /  0mm WeatherDisplay:10.37 W/m2 OVC
10:40 11.3 °F /  -11.5 °C 6.3 °F /  -14.3 °C 30.63in /  1037.1hPa SW 10.4mph /  16.7km/h 10.4mph /  16.7km/h 80% 0.00in /  0mm WeatherDisplay:10.37 W/m2 OVC
10:45 11.6 °F /  -11.3 °C 6.6 °F /  -14.1 °C 30.63in /  1037.1hPa West 12.7mph /  20.4km/h 12.7mph /  20.4km/h 80% 0.00in /  0mm WeatherDisplay:10.37 W/m2 OVC
10:50 11.8 °F /  -11.2 °C 6.8 °F /  -14 °C 30.63in /  1037.1hPa West 11.5mph /  18.5km/h 11.5mph /  18.5km/h 80% 0.00in /  0mm WeatherDisplay:10.37 W/m2 OVC
10:55 12.4 °F /  -10.9 °C 7.4 °F /  -13.7 °C 30.63in /  1037.1hPa West 10.0mph /  16.1km/h 10.0mph /  16.1km/h 80% 0.00in /  0mm WeatherDisplay:10.37 W/m2 OVC
11:00 12.9 °F /  -10.6 °C 7.6 °F /  -13.6 °C 30.63in /  1037.1hPa WSW 9.2mph /  14.8km/h 9.2mph /  14.8km/h 79% 0.00in /  0mm WeatherDisplay:10.37 W/m2 OVC
11:05 13.2 °F /  -10.4 °C 7.6 °F /  -13.6 °C 30.63in /  1037.1hPa West 6.9mph /  11.1km/h 6.9mph /  11.1km/h 78% 0.00in /  0mm WeatherDisplay:10.37 W/m2 OVC
11:10 13.4 °F /  -10.3 °C 7.5 °F /  -13.6 °C 30.62in /  1036.8hPa SW 12.7mph /  20.4km/h 12.7mph /  20.4km/h 77% 0.00in /  0mm WeatherDisplay:10.37 W/m2 OVC
11:15 13.3 °F /  -10.4 °C 7.1 °F /  -13.8 °C 30.62in /  1036.8hPa WSW 11.5mph /  18.5km/h 11.5mph /  18.5km/h 76% 0.00in /  0mm WeatherDisplay:10.37 W/m2 OVC
11:20 13.6 °F /  -10.2 °C 7.4 °F /  -13.7 °C 30.62in /  1036.8hPa SW 9.2mph /  14.8km/h 9.2mph /  14.8km/h 76% 0.00in /  0mm WeatherDisplay:10.37 W/m2 OVC
11:25 13.9 °F /  -10.1 °C 7.7 °F /  -13.5 °C 30.61in /  1036.5hPa West 10.4mph /  16.7km/h 10.4mph /  16.7km/h 76% 0.00in /  0mm WeatherDisplay:10.37 W/m2 SCT
11:30 14.2 °F /  -9.9 °C 7.7 °F /  -13.5 °C 30.60in /  1036.1hPa WSW 10.4mph /  16.7km/h 10.4mph /  16.7km/h 75% 0.00in /  0mm WeatherDisplay:10.37 W/m2 SCT
11:35 14.5 °F /  -9.7 °C 8.0 °F /  -13.3 °C 30.60in /  1036.1hPa West 10.4mph /  16.7km/h 10.4mph /  16.7km/h 75% 0.00in /  0mm WeatherDisplay:10.37 W/m2 SCT
11:40 14.8 °F /  -9.6 °C 8.3 °F /  -13.2 °C 30.60in /  1036.1hPa West 11.5mph /  18.5km/h 11.5mph /  18.5km/h 75% 0.00in /  0mm WeatherDisplay:10.37 W/m2 SCT
11:45 15.0 °F /  -9.4 °C 8.2 °F /  -13.2 °C 30.60in /  1036.1hPa West 9.2mph /  14.8km/h 9.2mph /  14.8km/h 74% 0.00in /  0mm WeatherDisplay:10.37 W/m2 CLR
11:50 15.3 °F /  -9.3 °C 8.2 °F /  -13.2 °C 30.60in /  1036.1hPa WSW 10.4mph /  16.7km/h 10.4mph /  16.7km/h 73% 0.00in /  0mm WeatherDisplay:10.37 W/m2 CLR
11:55 15.5 °F /  -9.2 °C 8.4 °F /  -13.1 °C 30.60in /  1036.1hPa WSW 10.4mph /  16.7km/h 10.4mph /  16.7km/h 73% 0.00in /  0mm WeatherDisplay:10.37 W/m2 CLR
12:00 16.2 °F /  -8.8 °C 8.8 °F /  -12.9 °C 30.59in /  1035.8hPa SSW 11.5mph /  18.5km/h 11.5mph /  18.5km/h 72% 0.00in /  0mm WeatherDisplay:10.37 W/m2 CLR
12:05 16.5 °F /  -8.6 °C 8.4 °F /  -13.1 °C 30.59in /  1035.8hPa WSW 15.0mph /  24.1km/h 15.0mph /  24.1km/h 70% 0.00in /  0mm WeatherDisplay:10.37 W/m2 CLR
12:10 16.8 °F /  -8.4 °C 8.7 °F /  -12.9 °C 30.59in /  1035.8hPa WSW 11.5mph /  18.5km/h 11.5mph /  18.5km/h 70% 0.00in /  0mm WeatherDisplay:10.37 W/m2 CLR
12:15 17.3 °F /  -8.2 °C 9.2 °F /  -12.7 °C 30.59in /  1035.8hPa WSW 11.5mph /  18.5km/h 11.5mph /  18.5km/h 70% 0.00in /  0mm WeatherDisplay:10.37 W/m2 CLR
12:20 17.6 °F /  -8 °C 9.5 °F /  -12.5 °C 30.58in /  1035.4hPa WSW 11.5mph /  18.5km/h 11.5mph /  18.5km/h 70% 0.00in /  0mm WeatherDisplay:10.37 W/m2 CLR
12:25 17.5 °F /  -8.1 °C 8.4 °F /  -13.1 °C 30.58in /  1035.4hPa West 9.2mph /  14.8km/h 9.2mph /  14.8km/h 67% 0.00in /  0mm WeatherDisplay:10.37 W/m2 CLR
12:30 17.9 °F /  -7.8 °C 9.1 °F /  -12.7 °C 30.57in /  1035.1hPa SW 8.1mph /  13km/h 8.4mph /  13.5km/h 68% 0.00in /  0mm WeatherDisplay:10.37 W/m2 CLR
12:35 18.2 °F /  -7.7 °C 9.4 °F /  -12.6 °C 30.57in /  1035.1hPa WSW 11.5mph /  18.5km/h 11.5mph /  18.5km/h 68% 0.00in /  0mm WeatherDisplay:10.37 W/m2 CLR
Smyth Weather
Compliments of Weather Underground - 2.25 mb